sim
Sign-in with your pilot id or email,
or register
Callsign
Passwort

Schedule Details

Flight Number: OEO3165
Departure: Basel Mulhouse-Freiburg EuroAirport (LFSB) at 14:55
Arrival: Munich Airport (EDDM) at 16:05

Weather Information
Getting current METAR information for LFSB 250500Z 31004KT 280V350 9999 FEW009 SCT025 BKN035 10/09 Q1004 NOSIG
Getting current METAR information for EDDM 250520Z 19006KT 9999 -RA SCT040 13/12 Q1001 NOSIG

Schedule Frequency

Route Map